Terminal Aerodrome Forecast
Issued by NWS Greer, SC

Home | Current Version | Previous Version | Text Only | Print | Product List | Glossary On
Versions: 1 2 3 4 5 6 7 8 9 10 11 12 13 14 15 16 17 18 19 20 21 22 23 24 25 26
399
FTUS42 KGSP 241311 AAB
TAFGSP
TAF AMD
KGSP 241311Z 2413/2512 18005KT P6SM BKN011 OVC030
      TEMPO 2413/2417 SCT011 BKN030
     FM241700 19007KT P6SM BKN035
      TEMPO 2418/2422 VRB20G30KT 3SM +TSRA BR BKN020CB
     FM242200 20012G18KT P6SM VCTS OVC045CB
     FM250000 22009KT P6SM OVC100=

USA.gov is the U.S. government's official web portal to all federal, state and local government web resources and services.